sensor_id;sensor_type;location;lat;lon;timestamp;pressure;altitude;pressure_sealevel;temperature;humidity
30554;BME280;17335;50.720;7.452;2023-02-13T00:00:19;101378.13;;;6.92;100.00
30554;BME280;17335;50.720;7.452;2023-02-13T00:02:47;101380.72;;;6.94;100.00
30554;BME280;17335;50.720;7.452;2023-02-13T00:05:14;101377.06;;;6.97;100.00
30554;BME280;17335;50.720;7.452;2023-02-13T00:07:40;101370.94;;;6.94;100.00
30554;BME280;17335;50.720;7.452;2023-02-13T00:10:07;101364.19;;;6.86;100.00
30554;BME280;17335;50.720;7.452;2023-02-13T00:12:35;101374.84;;;6.86;100.00
30554;BME280;17335;50.720;7.452;2023-02-13T00:15:02;101362.34;;;6.88;100.00
30554;BME280;17335;50.720;7.452;2023-02-13T00:17:29;101362.34;;;6.88;100.00
30554;BME280;17335;50.720;7.452;2023-02-13T00:19:55;101355.97;;;6.90;100.00
30554;BME280;17335;50.720;7.452;2023-02-13T00:22:22;101357.41;;;6.79;100.00
30554;BME280;17335;50.720;7.452;2023-02-13T00:24:49;101361.03;;;6.78;100.00
30554;BME280;17335;50.720;7.452;2023-02-13T00:27:16;101361.16;;;6.74;100.00
30554;BME280;17335;50.720;7.452;2023-02-13T00:29:42;101361.16;;;6.74;100.00
30554;BME280;17335;50.720;7.452;2023-02-13T00:32:09;101354.66;;;6.80;100.00
30554;BME280;17335;50.720;7.452;2023-02-13T00:34:36;101351.84;;;6.83;100.00
30554;BME280;17335;50.720;7.452;2023-02-13T00:37:02;101353.94;;;6.76;100.00
30554;BME280;17335;50.720;7.452;2023-02-13T00:39:29;101349.47;;;6.77;100.00
30554;BME280;17335;50.720;7.452;2023-02-13T00:41:55;101355.69;;;6.78;100.00
30554;BME280;17335;50.720;7.452;2023-02-13T00:44:22;101355.50;;;6.81;100.00
30554;BME280;17335;50.720;7.452;2023-02-13T00:46:49;101356.53;;;6.78;100.00
30554;BME280;17335;50.720;7.452;2023-02-13T00:49:16;101349.25;;;6.82;100.00
30554;BME280;17335;50.720;7.452;2023-02-13T00:51:42;101352.72;;;6.84;100.00
30554;BME280;17335;50.720;7.452;2023-02-13T00:54:09;101339.81;;;6.74;100.00
30554;BME280;17335;50.720;7.452;2023-02-13T00:56:36;101352.19;;;6.75;100.00
30554;BME280;17335;50.720;7.452;2023-02-13T00:59:02;101344.13;;;6.77;100.00
30554;BME280;17335;50.720;7.452;2023-02-13T01:01:29;101354.31;;;6.69;100.00
30554;BME280;17335;50.720;7.452;2023-02-13T01:03:55;101343.25;;;6.76;100.00
30554;BME280;17335;50.720;7.452;2023-02-13T01:06:22;101346.78;;;6.77;100.00
30554;BME280;17335;50.720;7.452;2023-02-13T01:08:49;101344.94;;;6.79;100.00
30554;BME280;17335;50.720;7.452;2023-02-13T01:11:17;101344.34;;;6.72;100.00
30554;BME280;17335;50.720;7.452;2023-02-13T01:13:45;101342.53;;;6.73;100.00
30554;BME280;17335;50.720;7.452;2023-02-13T01:16:12;101343.41;;;6.73;100.00
30554;BME280;17335;50.720;7.452;2023-02-13T01:18:41;101338.13;;;6.72;100.00
30554;BME280;17335;50.720;7.452;2023-02-13T01:21:14;101337.41;;;6.68;100.00
30554;BME280;17335;50.720;7.452;2023-02-13T01:23:41;101332.00;;;6.70;100.00
30554;BME280;17335;50.720;7.452;2023-02-13T01:26:11;101328.53;;;6.68;100.00
30554;BME280;17335;50.720;7.452;2023-02-13T01:28:39;101323.13;;;6.69;100.00
30554;BME280;17335;50.720;7.452;2023-02-13T01:31:05;101328.47;;;6.69;100.00
30554;BME280;17335;50.720;7.452;2023-02-13T01:33:32;101314.41;;;6.85;100.00
30554;BME280;17335;50.720;7.452;2023-02-13T01:36:11;101323.72;;;6.76;100.00
30554;BME280;17335;50.720;7.452;2023-02-13T01:38:40;101325.38;;;6.79;100.00
30554;BME280;17335;50.720;7.452;2023-02-13T01:41:08;101318.38;;;6.76;100.00
30554;BME280;17335;50.720;7.452;2023-02-13T01:44:01;101326.31;;;6.78;100.00
30554;BME280;17335;50.720;7.452;2023-02-13T01:46:34;101317.88;;;6.68;100.00
30554;BME280;17335;50.720;7.452;2023-02-13T01:49:09;101318.84;;;6.65;100.00
30554;BME280;17335;50.720;7.452;2023-02-13T01:51:37;101316.28;;;6.64;100.00
30554;BME280;17335;50.720;7.452;2023-02-13T01:54:12;101321.91;;;6.57;100.00
30554;BME280;17335;50.720;7.452;2023-02-13T01:56:44;101317.28;;;6.61;100.00
30554;BME280;17335;50.720;7.452;2023-02-13T01:59:19;101303.88;;;6.63;100.00
30554;BME280;17335;50.720;7.452;2023-02-13T02:01:48;101303.66;;;6.67;100.00
30554;BME280;17335;50.720;7.452;2023-02-13T02:04:30;101303.59;;;6.69;100.00
30554;BME280;17335;50.720;7.452;2023-02-13T02:07:09;101301.00;;;6.67;100.00
30554;BME280;17335;50.720;7.452;2023-02-13T02:09:40;101299.69;;;6.76;100.00
30554;BME280;17335;50.720;7.452;2023-02-13T02:12:22;101305.31;;;6.70;100.00
30554;BME280;17335;50.720;7.452;2023-02-13T02:14:52;101312.06;;;6.58;100.00
30554;BME280;17335;50.720;7.452;2023-02-13T02:17:21;101305.81;;;6.59;100.00
30554;BME280;17335;50.720;7.452;2023-02-13T02:23:33;101308.47;;;6.59;100.00
30554;BME280;17335;50.720;7.452;2023-02-13T02:25:52;101307.91;;;6.52;100.00
30554;BME280;17335;50.720;7.452;2023-02-13T02:28:50;101319.03;;;6.62;100.00
30554;BME280;17335;50.720;7.452;2023-02-13T02:32:01;101314.91;;;6.55;100.00
30554;BME280;17335;50.720;7.452;2023-02-13T02:34:46;101314.81;;;6.56;100.00
30554;BME280;17335;50.720;7.452;2023-02-13T02:50:44;101327.22;;;6.57;100.00
30554;BME280;17335;50.720;7.452;2023-02-13T02:53:23;101328.09;;;6.58;100.00
30554;BME280;17335;50.720;7.452;2023-02-13T02:56:17;101323.78;;;6.55;100.00
30554;BME280;17335;50.720;7.452;2023-02-13T02:59:02;101329.31;;;6.51;100.00
30554;BME280;17335;50.720;7.452;2023-02-13T03:01:48;101322.69;;;6.60;100.00
30554;BME280;17335;50.720;7.452;2023-02-13T03:04:39;101322.09;;;6.53;100.00
30554;BME280;17335;50.720;7.452;2023-02-13T03:07:26;101318.69;;;6.49;100.00
30554;BME280;17335;50.720;7.452;2023-02-13T03:09:58;101312.50;;;6.49;100.00
30554;BME280;17335;50.720;7.452;2023-02-13T03:13:00;101318.78;;;6.48;100.00
30554;BME280;17335;50.720;7.452;2023-02-13T03:15:58;101312.78;;;6.43;100.00
30554;BME280;17335;50.720;7.452;2023-02-13T03:18:54;101304.69;;;6.44;100.00
30554;BME280;17335;50.720;7.452;2023-02-13T03:21:58;101316.25;;;6.45;100.00
30554;BME280;17335;50.720;7.452;2023-02-13T03:25:03;101313.50;;;6.46;100.00
30554;BME280;17335;50.720;7.452;2023-02-13T03:27:50;101316.16;;;6.46;100.00
30554;BME280;17335;50.720;7.452;2023-02-13T03:33:55;101328.13;;;6.37;100.00
30554;BME280;17335;50.720;7.452;2023-02-13T03:36:30;101325.47;;;6.37;100.00
30554;BME280;17335;50.720;7.452;2023-02-13T03:39:21;101332.66;;;6.35;100.00
30554;BME280;17335;50.720;7.452;2023-02-13T03:41:57;101333.75;;;6.31;100.00
30554;BME280;17335;50.720;7.452;2023-02-13T03:44:42;101333.69;;;6.33;100.00
30554;BME280;17335;50.720;7.452;2023-02-13T03:47:10;101332.81;;;6.32;100.00
30554;BME280;17335;50.720;7.452;2023-02-13T03:49:42;101332.66;;;6.35;100.00
30554;BME280;17335;50.720;7.452;2023-02-13T03:52:50;101336.19;;;6.36;100.00
30554;BME280;17335;50.720;7.452;2023-02-13T03:55:20;101336.13;;;6.37;100.00
30554;BME280;17335;50.720;7.452;2023-02-13T03:58:11;101338.00;;;6.35;100.00
30554;BME280;17335;50.720;7.452;2023-02-13T04:01:01;101331.69;;;6.38;100.00
30554;BME280;17335;50.720;7.452;2023-02-13T04:03:56;101328.72;;;6.44;100.00
30554;BME280;17335;50.720;7.452;2023-02-13T04:06:34;101326.28;;;6.40;100.00
30554;BME280;17335;50.720;7.452;2023-02-13T04:09:03;101328.19;;;6.36;100.00
30554;BME280;17335;50.720;7.452;2023-02-13T04:11:55;101332.59;;;6.37;100.00
30554;BME280;17335;50.720;7.452;2023-02-13T04:14:27;101335.53;;;6.31;100.00
30554;BME280;17335;50.720;7.452;2023-02-13T04:17:01;101331.03;;;6.33;100.00
30554;BME280;17335;50.720;7.452;2023-02-13T04:19:30;101332.53;;;6.38;100.00
30554;BME280;17335;50.720;7.452;2023-02-13T04:21:59;101324.97;;;6.29;100.00
30554;BME280;17335;50.720;7.452;2023-02-13T04:24:26;101323.47;;;6.22;100.00
30554;BME280;17335;50.720;7.452;2023-02-13T04:26:54;101330.03;;;6.15;100.00
30554;BME280;17335;50.720;7.452;2023-02-13T04:29:22;101333.91;;;6.08;100.00
30554;BME280;17335;50.720;7.452;2023-02-13T04:31:49;101326.69;;;6.10;100.00
30554;BME280;17335;50.720;7.452;2023-02-13T04:34:16;101324.97;;;6.09;100.00
30554;BME280;17335;50.720;7.452;2023-02-13T04:36:43;101329.41;;;6.08;100.00
30554;BME280;17335;50.720;7.452;2023-02-13T04:39:10;101330.81;;;5.96;100.00
30554;BME280;17335;50.720;7.452;2023-02-13T04:41:37;101318.59;;;5.91;100.00
30554;BME280;17335;50.720;7.452;2023-02-13T04:44:03;101324.50;;;5.99;100.00
30554;BME280;17335;50.720;7.452;2023-02-13T04:46:30;101323.75;;;5.95;100.00
30554;BME280;17335;50.720;7.452;2023-02-13T04:48:56;101327.84;;;5.82;100.00
30554;BME280;17335;50.720;7.452;2023-02-13T04:51:23;101318.78;;;5.86;100.00
30554;BME280;17335;50.720;7.452;2023-02-13T04:53:49;101323.91;;;5.91;100.00
30554;BME280;17335;50.720;7.452;2023-02-13T04:56:16;101313.44;;;5.86;100.00
30554;BME280;17335;50.720;7.452;2023-02-13T04:58:45;101303.81;;;5.83;100.00
30554;BME280;17335;50.720;7.452;2023-02-13T05:01:13;101304.59;;;5.86;100.00
30554;BME280;17335;50.720;7.452;2023-02-13T05:03:40;101318.66;;;5.89;100.00
30554;BME280;17335;50.720;7.452;2023-02-13T05:06:08;101318.78;;;5.86;100.00
30554;BME280;17335;50.720;7.452;2023-02-13T05:08:36;101315.88;;;5.92;100.00
30554;BME280;17335;50.720;7.452;2023-02-13T05:11:02;101324.72;;;5.93;100.00
30554;BME280;17335;50.720;7.452;2023-02-13T05:13:30;101323.00;;;5.92;100.00
30554;BME280;17335;50.720;7.452;2023-02-13T05:15:56;101327.22;;;5.97;100.00
30554;BME280;17335;50.720;7.452;2023-02-13T05:18:23;101317.81;;;5.89;100.00
30554;BME280;17335;50.720;7.452;2023-02-13T05:20:49;101325.13;;;5.83;100.00
30554;BME280;17335;50.720;7.452;2023-02-13T05:23:36;101329.72;;;5.80;100.00
30554;BME280;17335;50.720;7.452;2023-02-13T05:26:03;101324.75;;;5.71;100.00
30554;BME280;17335;50.720;7.452;2023-02-13T05:28:30;101330.09;;;5.71;100.00
30554;BME280;17335;50.720;7.452;2023-02-13T05:31:15;101329.22;;;5.70;100.00
30554;BME280;17335;50.720;7.452;2023-02-13T05:33:41;101333.94;;;5.63;100.00
30554;BME280;17335;50.720;7.452;2023-02-13T05:36:08;101327.78;;;5.63;100.00
30554;BME280;17335;50.720;7.452;2023-02-13T05:38:34;101332.34;;;5.59;100.00
30554;BME280;17335;50.720;7.452;2023-02-13T05:41:01;101326.25;;;5.57;100.00
30554;BME280;17335;50.720;7.452;2023-02-13T05:43:28;101315.69;;;5.54;100.00
30554;BME280;17335;50.720;7.452;2023-02-13T05:46:07;101321.16;;;5.51;100.00
30554;BME280;17335;50.720;7.452;2023-02-13T05:48:35;101330.28;;;5.45;100.00
30554;BME280;17335;50.720;7.452;2023-02-13T05:51:02;101323.06;;;5.48;100.00
30554;BME280;17335;50.720;7.452;2023-02-13T05:53:29;101323.41;;;5.40;100.00
30554;BME280;17335;50.720;7.452;2023-02-13T05:55:55;101324.19;;;5.42;100.00
30554;BME280;17335;50.720;7.452;2023-02-13T05:58:22;101318.00;;;5.41;100.00
30554;BME280;17335;50.720;7.452;2023-02-13T06:00:49;101328.66;;;5.41;100.00
30554;BME280;17335;50.720;7.452;2023-02-13T06:03:15;101324.31;;;5.39;100.00
30554;BME280;17335;50.720;7.452;2023-02-13T06:05:42;101319.84;;;5.39;100.00
30554;BME280;17335;50.720;7.452;2023-02-13T06:08:09;101323.69;;;5.32;100.00
30554;BME280;17335;50.720;7.452;2023-02-13T06:10:36;101328.41;;;5.25;100.00
30554;BME280;17335;50.720;7.452;2023-02-13T06:13:03;101323.19;;;5.22;100.00
30554;BME280;17335;50.720;7.452;2023-02-13T06:15:30;101325.94;;;5.21;100.00
30554;BME280;17335;50.720;7.452;2023-02-13T06:17:57;101325.94;;;5.21;100.00
30554;BME280;17335;50.720;7.452;2023-02-13T06:20:23;101323.34;;;5.19;100.00
30554;BME280;17335;50.720;7.452;2023-02-13T06:22:50;101328.66;;;5.19;100.00
30554;BME280;17335;50.720;7.452;2023-02-13T06:25:18;101328.16;;;5.10;100.00
30554;BME280;17335;50.720;7.452;2023-02-13T06:27:45;101329.13;;;5.07;100.00
30554;BME280;17335;50.720;7.452;2023-02-13T06:30:13;101332.81;;;5.04;100.00
30554;BME280;17335;50.720;7.452;2023-02-13T06:32:41;101327.66;;;5.00;100.00
30554;BME280;17335;50.720;7.452;2023-02-13T06:35:08;101342.75;;;4.99;100.00
30554;BME280;17335;50.720;7.452;2023-02-13T06:37:35;101340.09;;;4.99;100.00
30554;BME280;17335;50.720;7.452;2023-02-13T06:40:02;101330.50;;;4.95;100.00
30554;BME280;17335;50.720;7.452;2023-02-13T06:42:28;101340.53;;;4.88;100.00
30554;BME280;17335;50.720;7.452;2023-02-13T06:44:54;101339.03;;;4.81;100.00
30554;BME280;17335;50.720;7.452;2023-02-13T06:47:21;101345.69;;;4.69;100.00
30554;BME280;17335;50.720;7.452;2023-02-13T06:49:48;101341.75;;;4.80;100.00
30554;BME280;17335;50.720;7.452;2023-02-13T06:52:14;101345.84;;;4.65;100.00
30554;BME280;17335;50.720;7.452;2023-02-13T06:54:41;101346.91;;;4.61;100.00
30554;BME280;17335;50.720;7.452;2023-02-13T06:57:14;101338.09;;;4.59;100.00
30554;BME280;17335;50.720;7.452;2023-02-13T06:59:41;101331.03;;;4.58;100.00
30554;BME280;17335;50.720;7.452;2023-02-13T07:02:11;101340.03;;;4.54;100.00
30554;BME280;17335;50.720;7.452;2023-02-13T07:04:38;101341.63;;;4.59;100.00
30554;BME280;17335;50.720;7.452;2023-02-13T07:07:05;101339.25;;;4.51;100.00
30554;BME280;17335;50.720;7.452;2023-02-13T07:09:32;101339.19;;;4.53;100.00
30554;BME280;17335;50.720;7.452;2023-02-13T07:12:02;101339.13;;;4.55;100.00
30554;BME280;17335;50.720;7.452;2023-02-13T07:14:29;101333.13;;;4.49;100.00
30554;BME280;17335;50.720;7.452;2023-02-13T07:16:56;101338.28;;;4.54;100.00
30554;BME280;17335;50.720;7.452;2023-02-13T07:19:23;101334.63;;;4.57;100.00
30554;BME280;17335;50.720;7.452;2023-02-13T07:21:49;101334.50;;;4.60;100.00
30554;BME280;17335;50.720;7.452;2023-02-13T07:24:16;101334.88;;;4.50;100.00
30554;BME280;17335;50.720;7.452;2023-02-13T07:26:43;101335.78;;;4.49;100.00
30554;BME280;17335;50.720;7.452;2023-02-13T07:29:09;101341.19;;;4.46;100.00
30554;BME280;17335;50.720;7.452;2023-02-13T07:31:38;101333.47;;;4.40;100.00
30554;BME280;17335;50.720;7.452;2023-02-13T07:34:05;101337.94;;;4.38;100.00
30554;BME280;17335;50.720;7.452;2023-02-13T07:36:32;101328.25;;;4.37;100.00
30554;BME280;17335;50.720;7.452;2023-02-13T07:38:58;101333.38;;;4.42;100.00
30554;BME280;17335;50.720;7.452;2023-02-13T07:41:25;101334.22;;;4.44;100.00
30554;BME280;17335;50.720;7.452;2023-02-13T07:43:53;101328.91;;;4.44;100.00
30554;BME280;17335;50.720;7.452;2023-02-13T07:46:20;101333.81;;;4.55;100.00
30554;BME280;17335;50.720;7.452;2023-02-13T07:48:46;101331.25;;;4.51;100.00
30554;BME280;17335;50.720;7.452;2023-02-13T07:51:13;101328.59;;;4.51;100.00
30554;BME280;17335;50.720;7.452;2023-02-13T07:53:40;101332.13;;;4.52;100.00
30554;BME280;17335;50.720;7.452;2023-02-13T07:56:08;101327.78;;;4.49;100.00
30554;BME280;17335;50.720;7.452;2023-02-13T07:58:36;101325.13;;;4.49;100.00
30554;BME280;17335;50.720;7.452;2023-02-13T08:01:08;101327.69;;;4.53;100.00
30554;BME280;17335;50.720;7.452;2023-02-13T08:03:34;101333.88;;;4.53;100.00
30554;BME280;17335;50.720;7.452;2023-02-13T08:06:01;101332.00;;;4.55;100.00
30554;BME280;17335;50.720;7.452;2023-02-13T08:08:28;101331.97;;;4.57;100.00
30554;BME280;17335;50.720;7.452;2023-02-13T08:10:55;101329.03;;;4.64;100.00
30554;BME280;17335;50.720;7.452;2023-02-13T08:14:01;101319.34;;;4.62;100.00
30554;BME280;17335;50.720;7.452;2023-02-13T08:16:27;101326.00;;;4.74;100.00
30554;BME280;17335;50.720;7.452;2023-02-13T08:18:54;101319.56;;;4.79;100.00
30554;BME280;17335;50.720;7.452;2023-02-13T08:21:20;101326.91;;;4.73;100.00
30554;BME280;17335;50.720;7.452;2023-02-13T08:23:47;101328.88;;;4.91;100.00
30554;BME280;17335;50.720;7.452;2023-02-13T08:26:16;101321.75;;;4.92;100.00
30554;BME280;17335;50.720;7.452;2023-02-13T08:28:43;101333.09;;;4.97;100.00
30554;BME280;17335;50.720;7.452;2023-02-13T08:31:10;101331.00;;;5.05;100.00
30554;BME280;17335;50.720;7.452;2023-02-13T08:33:37;101334.34;;;5.10;100.00
30554;BME280;17335;50.720;7.452;2023-02-13T08:36:05;101332.25;;;5.18;100.00
30554;BME280;17335;50.720;7.452;2023-02-13T08:38:33;101336.34;;;5.27;100.00
30554;BME280;17335;50.720;7.452;2023-02-13T08:40:59;101338.03;;;5.30;100.00
30554;BME280;17335;50.720;7.452;2023-02-13T08:43:26;101337.19;;;5.28;100.00
30554;BME280;17335;50.720;7.452;2023-02-13T08:45:52;101337.06;;;5.31;100.00
30554;BME280;17335;50.720;7.452;2023-02-13T08:48:19;101335.66;;;5.44;100.00
30554;BME280;17335;50.720;7.452;2023-02-13T08:50:45;101332.81;;;5.49;100.00
30554;BME280;17335;50.720;7.452;2023-02-13T08:53:12;101338.59;;;5.58;100.00
30554;BME280;17335;50.720;7.452;2023-02-13T08:55:39;101333.50;;;5.54;100.00
30554;BME280;17335;50.720;7.452;2023-02-13T08:58:05;101333.22;;;5.60;100.00
30554;BME280;17335;50.720;7.452;2023-02-13T09:00:32;101329.28;;;5.69;100.00
30554;BME280;17335;50.720;7.452;2023-02-13T09:03:03;101322.72;;;5.77;100.00
30554;BME280;17335;50.720;7.452;2023-02-13T09:05:30;101326.94;;;5.83;100.00
30554;BME280;17335;50.720;7.452;2023-02-13T09:08:01;101317.81;;;5.89;100.00
30554;BME280;17335;50.720;7.452;2023-02-13T09:10:30;101323.00;;;5.92;100.00
30554;BME280;17335;50.720;7.452;2023-02-13T09:12:57;101320.28;;;5.93;100.00
30554;BME280;17335;50.720;7.452;2023-02-13T09:15:23;101325.09;;;6.06;100.00
30554;BME280;17335;50.720;7.452;2023-02-13T09:17:50;101337.47;;;6.07;100.00
30554;BME280;17335;50.720;7.452;2023-02-13T09:20:17;101333.47;;;6.17;100.00
30554;BME280;17335;50.720;7.452;2023-02-13T09:22:44;101333.47;;;6.17;100.00
30554;BME280;17335;50.720;7.452;2023-02-13T09:25:11;101325.88;;;6.28;100.00
30554;BME280;17335;50.720;7.452;2023-02-13T09:27:38;101327.63;;;6.29;100.00
30554;BME280;17335;50.720;7.452;2023-02-13T09:30:08;101331.53;;;6.41;100.00
30554;BME280;17335;50.720;7.452;2023-02-13T09:32:36;101333.66;;;6.53;100.00
30554;BME280;17335;50.720;7.452;2023-02-13T09:35:05;101330.69;;;6.60;100.00
30554;BME280;17335;50.720;7.452;2023-02-13T09:37:31;101329.69;;;6.62;100.00
30554;BME280;17335;50.720;7.452;2023-02-13T09:39:58;101342.69;;;6.70;100.00
30554;BME280;17335;50.720;7.452;2023-02-13T09:42:28;101330.34;;;6.67;100.00
30554;BME280;17335;50.720;7.452;2023-02-13T09:44:58;101334.47;;;6.74;100.00
30554;BME280;17335;50.720;7.452;2023-02-13T09:47:38;101329.66;;;6.83;100.00
30554;BME280;17335;50.720;7.452;2023-02-13T09:52:36;101326.31;;;6.97;100.00
30554;BME280;17335;50.720;7.452;2023-02-13T09:55:15;101319.59;;;7.07;100.00
30554;BME280;17335;50.720;7.452;2023-02-13T10:00:39;101321.28;;;7.27;100.00
30554;BME280;17335;50.720;7.452;2023-02-13T10:03:22;101314.34;;;7.42;100.00
30554;BME280;17335;50.720;7.452;2023-02-13T10:06:01;101315.03;;;7.45;100.00
30554;BME280;17335;50.720;7.452;2023-02-13T10:14:26;101312.22;;;7.66;100.00
30554;BME280;17335;50.720;7.452;2023-02-13T10:17:03;101308.44;;;7.70;100.00
30554;BME280;17335;50.720;7.452;2023-02-13T10:22:39;101310.81;;;7.94;100.00
30554;BME280;17335;50.720;7.452;2023-02-13T10:25:16;101307.75;;;8.01;100.00
30554;BME280;17335;50.720;7.452;2023-02-13T10:28:03;101303.97;;;8.05;100.00
30554;BME280;17335;50.720;7.452;2023-02-13T10:30:42;101311.19;;;8.21;100.00
30554;BME280;17335;50.720;7.452;2023-02-13T10:33:18;101303.00;;;8.24;100.00
30554;BME280;17335;50.720;7.452;2023-02-13T10:35:58;101307.69;;;8.36;100.00
30554;BME280;17335;50.720;7.452;2023-02-13T10:38:28;101302.25;;;8.38;100.00
30554;BME280;17335;50.720;7.452;2023-02-13T10:43:37;101299.56;;;8.55;100.00
30554;BME280;17335;50.720;7.452;2023-02-13T10:46:10;101297.44;;;8.62;100.00
30554;BME280;17335;50.720;7.452;2023-02-13T10:51:57;101297.50;;;8.76;100.00
30554;BME280;17335;50.720;7.452;2023-02-13T10:54:50;101295.44;;;8.81;100.00
30554;BME280;17335;50.720;7.452;2023-02-13T10:57:27;101290.44;;;8.91;100.00
30554;BME280;17335;50.720;7.452;2023-02-13T11:00:13;101292.44;;;9.04;100.00
30554;BME280;17335;50.720;7.452;2023-02-13T11:02:43;101291.22;;;9.09;100.00
30554;BME280;17335;50.720;7.452;2023-02-13T11:05:20;101280.84;;;9.19;100.00
30554;BME280;17335;50.720;7.452;2023-02-13T11:07:48;101278.41;;;9.30;100.00
30554;BME280;17335;50.720;7.452;2023-02-13T11:10:24;101279.53;;;9.42;100.00
30554;BME280;17335;50.720;7.452;2023-02-13T11:12:52;101269.47;;;9.46;100.00
30554;BME280;17335;50.720;7.452;2023-02-13T11:15:28;101269.78;;;9.55;100.00
30554;BME280;17335;50.720;7.452;2023-02-13T11:17:55;101267.78;;;9.59;100.00
30554;BME280;17335;50.720;7.452;2023-02-13T11:22:49;101266.28;;;9.69;100.00
30554;BME280;17335;50.720;7.452;2023-02-13T11:25:26;101256.34;;;9.71;100.00
30554;BME280;17335;50.720;7.452;2023-02-13T11:28:14;101258.44;;;9.81;100.00
30554;BME280;17335;50.720;7.452;2023-02-13T11:30:43;101256.44;;;9.84;100.00
30554;BME280;17335;50.720;7.452;2023-02-13T11:35:44;101250.50;;;9.93;100.00
30554;BME280;17335;50.720;7.452;2023-02-13T11:40:43;101241.25;;;10.13;100.00
30554;BME280;17335;50.720;7.452;2023-02-13T11:43:48;101243.81;;;10.29;100.00
30554;BME280;17335;50.720;7.452;2023-02-13T11:46:23;101235.78;;;10.29;100.00
30554;BME280;17335;50.720;7.452;2023-02-13T11:49:03;101232.25;;;10.43;100.00
30554;BME280;17335;50.720;7.452;2023-02-13T11:54:02;101230.34;;;10.45;100.00
30554;BME280;17335;50.720;7.452;2023-02-13T11:56:46;101226.22;;;10.54;100.00
30554;BME280;17335;50.720;7.452;2023-02-13T11:59:32;101215.81;;;10.62;100.00
30554;BME280;17335;50.720;7.452;2023-02-13T12:02:23;101214.16;;;10.74;100.00
30554;BME280;17335;50.720;7.452;2023-02-13T12:04:52;101207.63;;;10.78;100.00
30554;BME280;17335;50.720;7.452;2023-02-13T12:07:25;101204.44;;;10.86;100.00
30554;BME280;17335;50.720;7.452;2023-02-13T12:10:10;101192.44;;;10.92;100.00
30554;BME280;17335;50.720;7.452;2023-02-13T12:12:53;101195.34;;;11.01;100.00
30554;BME280;17335;50.720;7.452;2023-02-13T12:15:23;101192.47;;;11.04;100.00
30554;BME280;17335;50.720;7.452;2023-02-13T12:20:38;101191.94;;;11.12;100.00
30554;BME280;17335;50.720;7.452;2023-02-13T12:23:19;101190.88;;;11.15;100.00
30554;BME280;17335;50.720;7.452;2023-02-13T12:40:03;101162.97;;;11.43;100.00
30554;BME280;17335;50.720;7.452;2023-02-13T12:45:21;101164.41;;;11.61;100.00
30554;BME280;17335;50.720;7.452;2023-02-13T12:56:22;101157.97;;;11.64;100.00
30554;BME280;17335;50.720;7.452;2023-02-13T12:59:16;101153.97;;;11.70;100.00
30554;BME280;17335;50.720;7.452;2023-02-13T13:04:38;101143.00;;;11.73;100.00
30554;BME280;17335;50.720;7.452;2023-02-13T13:10:35;101138.91;;;11.80;100.00
30554;BME280;17335;50.720;7.452;2023-02-13T13:16:01;101136.09;;;11.94;100.00
30554;BME280;17335;50.720;7.452;2023-02-13T13:21:25;101136.94;;;12.08;100.00
30554;BME280;17335;50.720;7.452;2023-02-13T13:24:12;101130.50;;;12.10;100.00
30554;BME280;17335;50.720;7.452;2023-02-13T13:26:47;101131.25;;;12.12;100.00
30554;BME280;17335;50.720;7.452;2023-02-13T13:29:22;101124.44;;;12.07;100.00
30554;BME280;17335;50.720;7.452;2023-02-13T13:31:56;101127.66;;;12.12;100.00
30554;BME280;17335;50.720;7.452;2023-02-13T13:34:27;101128.56;;;12.12;100.00
30554;BME280;17335;50.720;7.452;2023-02-13T13:37:05;101115.94;;;12.13;100.00
30554;BME280;17335;50.720;7.452;2023-02-13T13:48:01;101111.69;;;12.34;100.00
30554;BME280;17335;50.720;7.452;2023-02-13T13:50:34;101110.38;;;12.40;100.00
30554;BME280;17335;50.720;7.452;2023-02-13T13:58:44;101106.88;;;12.51;100.00
30554;BME280;17335;50.720;7.452;2023-02-13T14:01:28;101097.22;;;12.48;100.00
30554;BME280;17335;50.720;7.452;2023-02-13T14:03:56;101104.19;;;12.51;100.00
30554;BME280;17335;50.720;7.452;2023-02-13T14:06:25;101096.31;;;12.48;100.00
30554;BME280;17335;50.720;7.452;2023-02-13T14:08:58;101090.31;;;12.44;100.00
30554;BME280;17335;50.720;7.452;2023-02-13T14:13:57;101093.75;;;12.46;100.00
30554;BME280;17335;50.720;7.452;2023-02-13T14:16:44;101091.47;;;12.53;100.00
30554;BME280;17335;50.720;7.452;2023-02-13T14:19:34;101097.84;;;12.52;100.00
30554;BME280;17335;50.720;7.452;2023-02-13T14:24:58;101089.69;;;12.41;100.00
30554;BME280;17335;50.720;7.452;2023-02-13T14:29:55;101089.00;;;12.50;100.00
30554;BME280;17335;50.720;7.452;2023-02-13T14:32:31;101074.88;;;12.46;100.00
30554;BME280;17335;50.720;7.452;2023-02-13T14:35:02;101079.31;;;12.47;100.00
30554;BME280;17335;50.720;7.452;2023-02-13T14:37:54;101073.47;;;12.53;100.00
30554;BME280;17335;50.720;7.452;2023-02-13T14:40:43;101079.38;;;12.59;100.00
30554;BME280;17335;50.720;7.452;2023-02-13T14:43:18;101080.44;;;12.56;100.00
30554;BME280;17335;50.720;7.452;2023-02-13T14:45:50;101078.69;;;12.44;100.00
30554;BME280;17335;50.720;7.452;2023-02-13T14:48:21;101080.53;;;12.43;100.00
30554;BME280;17335;50.720;7.452;2023-02-13T14:50:52;101082.34;;;12.43;100.00
30554;BME280;17335;50.720;7.452;2023-02-13T14:53:23;101082.31;;;12.55;100.00
30554;BME280;17335;50.720;7.452;2023-02-13T14:55:58;101076.84;;;12.44;100.00
30554;BME280;17335;50.720;7.452;2023-02-13T14:58:31;101076.00;;;12.44;100.00
30554;BME280;17335;50.720;7.452;2023-02-13T15:01:04;101075.69;;;12.35;100.00
30554;BME280;17335;50.720;7.452;2023-02-13T15:03:48;101084.97;;;12.31;100.00
30554;BME280;17335;50.720;7.452;2023-02-13T15:06:31;101077.97;;;12.29;100.00